createdAt,value
2018-07-21T00:00:16.279Z,99106.30
2018-07-21T00:02:44.421Z,99102.25
2018-07-21T00:05:12.511Z,99107.52
2018-07-21T00:07:40.487Z,99105.66
2018-07-21T00:10:08.748Z,99109.72
2018-07-21T00:12:36.690Z,99111.27
2018-07-21T00:15:04.890Z,99109.72
2018-07-21T00:17:33.339Z,99109.59
2018-07-21T00:20:01.290Z,99107.91
2018-07-21T00:22:29.346Z,99114.49
2018-07-21T00:24:57.484Z,99106.39
2018-07-21T00:27:25.568Z,99110.97
2018-07-21T00:29:53.695Z,99098.62
2018-07-21T00:32:21.597Z,99101.84
2018-07-21T00:34:49.570Z,99098.62
2018-07-21T00:37:17.891Z,99104.73
2018-07-21T00:39:46.970Z,99104.41
2018-07-21T00:42:14.985Z,99107.16
2018-07-21T00:44:43.127Z,99105.02
2018-07-21T00:47:11.554Z,99110.89
2018-07-21T00:49:39.477Z,99114.84
2018-07-21T00:52:07.430Z,99110.89
2018-07-21T00:54:35.557Z,99106.98
2018-07-21T00:57:03.522Z,99107.81
2018-07-21T00:59:31.594Z,99106.08
2018-07-21T01:01:59.533Z,99097.33
2018-07-21T01:04:27.634Z,99089.17
2018-07-21T01:06:55.684Z,99095.59
2018-07-21T01:09:23.936Z,99086.70
2018-07-21T01:11:51.946Z,99093.09
2018-07-21T01:14:20.108Z,99097.00
2018-07-21T01:16:48.128Z,99090.24
2018-07-21T01:19:16.320Z,99097.14
2018-07-21T01:21:44.257Z,99091.73
2018-07-21T01:24:12.365Z,99093.45
2018-07-21T01:26:40.460Z,99102.41
2018-07-21T01:29:08.557Z,99106.12
2018-07-21T01:31:36.710Z,99100.08
2018-07-21T01:34:09.319Z,99102.92
2018-07-21T01:36:37.877Z,99101.44
2018-07-21T01:39:08.543Z,99103.48
2018-07-21T01:41:36.572Z,99100.97
2018-07-21T01:44:04.743Z,99101.81
2018-07-21T01:46:32.710Z,99101.48
2018-07-21T01:49:00.683Z,99108.23
2018-07-21T01:51:32.645Z,99107.07
2018-07-21T01:54:01.731Z,99106.23
2018-07-21T01:56:29.735Z,99109.09
2018-07-21T01:58:57.927Z,99105.22
2018-07-21T02:01:25.889Z,99109.27
2018-07-21T02:03:54.015Z,99110.63
2018-07-21T02:06:22.146Z,99111.46
2018-07-21T02:08:50.114Z,99117.55
2018-07-21T02:11:18.144Z,99117.36
2018-07-21T02:13:46.263Z,99115.17
2018-07-21T02:16:14.351Z,99119.23
2018-07-21T02:18:42.324Z,99121.56
2018-07-21T02:21:10.655Z,99130.17
2018-07-21T02:23:38.662Z,99124.63
2018-07-21T02:26:06.651Z,99127.67
2018-07-21T02:28:34.867Z,99127.89
2018-07-21T02:31:02.887Z,99126.41
2018-07-21T02:33:31.013Z,99128.92
2018-07-21T02:35:59.141Z,99130.83
2018-07-21T02:38:27.110Z,99117.02
2018-07-21T02:40:55.060Z,99125.30
2018-07-21T02:43:23.190Z,99128.83
2018-07-21T02:45:51.105Z,99122.41
2018-07-21T02:48:19.153Z,99121.23
2018-07-21T02:50:47.727Z,99129.44
2018-07-21T02:53:15.680Z,99126.91
2018-07-21T02:55:43.457Z,99132.97
2018-07-21T02:58:11.847Z,99125.20
2018-07-21T03:00:39.858Z,99123.15
2018-07-21T03:03:07.759Z,99123.80
2018-07-21T03:05:35.729Z,99132.23
2018-07-21T03:08:03.800Z,99132.74
2018-07-21T03:10:31.891Z,99134.42
2018-07-21T03:13:00.092Z,99138.14
2018-07-21T03:15:28.125Z,99140.00
2018-07-21T03:17:56.207Z,99135.26
2018-07-21T03:20:24.567Z,99138.98
2018-07-21T03:22:52.613Z,99146.94
2018-07-21T03:25:20.645Z,99148.98
2018-07-21T03:27:49.003Z,99148.98
2018-07-21T03:30:16.996Z,99149.17
2018-07-21T03:32:44.984Z,99149.00
2018-07-21T03:35:12.931Z,99151.38
2018-07-21T03:37:41.013Z,99151.55
2018-07-21T03:40:09.002Z,99143.49
2018-07-21T03:42:37.010Z,99145.88
2018-07-21T03:45:04.986Z,99147.07
2018-07-21T03:47:33.040Z,99142.43
2018-07-21T03:50:01.389Z,99141.03
2018-07-21T03:52:29.533Z,99137.30
2018-07-21T03:54:57.356Z,99132.83
2018-07-21T03:57:25.644Z,99136.55
2018-07-21T03:59:54.558Z,99133.16
2018-07-21T04:02:22.457Z,99127.98
2018-07-21T04:04:50.585Z,99135.44
2018-07-21T04:07:18.533Z,99130.97
2018-07-21T04:09:46.473Z,99139.40
2018-07-21T04:12:15.034Z,99141.26
2018-07-21T04:14:43.010Z,99140.03
2018-07-21T04:17:16.904Z,99145.41
2018-07-21T04:19:44.896Z,99137.97
2018-07-21T04:22:13.069Z,99138.61
2018-07-21T04:24:41.216Z,99136.97
2018-07-21T04:27:09.395Z,99146.22
2018-07-21T04:29:37.338Z,99140.10
2018-07-21T04:32:05.409Z,99134.98
2018-07-21T04:34:33.340Z,99138.13
2018-07-21T04:37:01.449Z,99140.44
2018-07-21T04:39:29.888Z,99141.43
2018-07-21T04:41:57.971Z,99133.50
2018-07-21T04:44:26.053Z,99135.23
2018-07-21T04:46:54.338Z,99141.25
2018-07-21T04:49:22.361Z,99149.58
2018-07-21T04:51:50.413Z,99148.36
2018-07-21T04:54:18.550Z,99151.23
2018-07-21T04:56:46.580Z,99156.09
2018-07-21T04:59:14.647Z,99159.91
2018-07-21T05:01:42.787Z,99163.28
2018-07-21T05:04:10.841Z,99167.08
2018-07-21T05:06:38.804Z,99165.81
2018-07-21T05:09:09.374Z,99167.11
2018-07-21T05:11:37.850Z,99162.98
2018-07-21T05:14:06.450Z,99172.43
2018-07-21T05:16:34.486Z,99172.38
2018-07-21T05:19:02.601Z,99175.66
2018-07-21T05:21:30.478Z,99171.36
2018-07-21T05:24:16.860Z,99179.09
2018-07-21T05:26:45.041Z,99187.55
2018-07-21T05:29:13.431Z,99185.87
2018-07-21T05:31:41.392Z,99192.18
2018-07-21T05:34:09.491Z,99195.52
2018-07-21T05:36:37.540Z,99192.70
2018-07-21T05:39:07.377Z,99187.15
2018-07-21T05:41:35.350Z,99186.36
2018-07-21T05:44:03.538Z,99185.42
2018-07-21T05:46:31.407Z,99182.36
2018-07-21T05:49:00.423Z,99192.03
2018-07-21T05:51:28.475Z,99194.14
2018-07-21T05:53:56.566Z,99195.02
2018-07-21T05:56:24.593Z,99200.14
2018-07-21T05:58:52.878Z,99198.17
2018-07-21T06:01:20.937Z,99202.16
2018-07-21T06:03:48.950Z,99210.53
2018-07-21T06:06:17.070Z,99217.30
2018-07-21T06:08:45.313Z,99216.10
2018-07-21T06:11:13.194Z,99205.05
2018-07-21T06:13:48.878Z,99219.98
2018-07-21T06:16:16.989Z,99216.19
2018-07-21T06:18:45.050Z,99212.55
2018-07-21T06:21:13.515Z,99209.03
2018-07-21T06:23:41.522Z,99211.54
2018-07-21T06:26:09.668Z,99217.75
2018-07-21T06:28:38.040Z,99217.28
2018-07-21T06:31:06.265Z,99213.83
2018-07-21T06:33:34.262Z,99215.30
2018-07-21T06:36:02.375Z,99215.98
2018-07-21T06:38:30.486Z,99211.67
2018-07-21T06:40:58.310Z,99208.39
2018-07-21T06:43:26.324Z,99205.92
2018-07-21T06:45:55.260Z,99206.66
2018-07-21T06:48:23.247Z,99207.87
2018-07-21T06:50:51.423Z,99198.83
2018-07-21T06:53:19.443Z,99200.92
2018-07-21T06:55:47.408Z,99202.70
2018-07-21T06:58:15.517Z,99204.27
2018-07-21T07:00:43.672Z,99198.56
2018-07-21T07:03:11.674Z,99199.66
2018-07-21T07:05:40.023Z,99195.02
2018-07-21T07:08:07.962Z,99198.36
2018-07-21T07:10:35.912Z,99195.98
2018-07-21T07:13:04.401Z,99195.73
2018-07-21T07:15:32.480Z,99196.15
2018-07-21T07:18:00.558Z,99202.20
2018-07-21T07:20:29.231Z,99200.03
2018-07-21T07:22:57.333Z,99196.79
2018-07-21T07:25:25.267Z,99199.95
2018-07-21T07:27:53.316Z,99194.37
2018-07-21T07:30:21.213Z,99198.17
2018-07-21T07:32:49.182Z,99194.75
2018-07-21T07:35:17.147Z,99193.50
2018-07-21T07:39:14.635Z,99192.16
2018-07-21T07:41:42.578Z,99188.20
2018-07-21T07:44:10.651Z,99186.44
2018-07-21T07:46:38.687Z,99183.30
2018-07-21T07:49:07.221Z,99179.84
2018-07-21T07:51:35.213Z,99175.78
2018-07-21T07:54:03.198Z,99174.20
2018-07-21T07:56:31.321Z,99179.66
2018-07-21T07:58:59.661Z,99173.48
2018-07-21T08:01:27.803Z,99176.42
2018-07-21T08:03:56.117Z,99164.27
2018-07-21T08:06:24.104Z,99172.00
2018-07-21T08:08:52.093Z,99167.08
2018-07-21T08:11:20.249Z,99165.08
2018-07-21T08:13:48.241Z,99162.78
2018-07-21T08:16:16.234Z,99163.36
2018-07-21T08:18:44.498Z,99168.05
2018-07-21T08:21:12.853Z,99162.91
2018-07-21T08:23:40.730Z,99165.53
2018-07-21T08:26:08.761Z,99163.19
2018-07-21T08:28:36.645Z,99165.00
2018-07-21T08:31:04.511Z,99158.37
2018-07-21T08:33:32.665Z,99156.53
2018-07-21T08:36:01.764Z,99148.78
2018-07-21T08:38:29.723Z,99148.20
2018-07-21T08:40:58.128Z,99150.70
2018-07-21T08:43:26.158Z,99156.38
2018-07-21T08:45:54.170Z,99157.27
2018-07-21T08:48:22.161Z,99159.33
2018-07-21T08:50:50.106Z,99158.44
2018-07-21T08:53:18.074Z,99153.46
2018-07-21T08:55:46.434Z,99164.25
2018-07-21T08:58:14.399Z,99153.52
2018-07-21T09:00:42.495Z,99145.86
2018-07-21T09:03:10.881Z,99148.95
2018-07-21T09:05:39.069Z,99143.97
2018-07-21T09:08:07.150Z,99147.81
2018-07-21T09:10:35.443Z,99141.08
2018-07-21T09:13:03.557Z,99139.72
2018-07-21T09:15:31.421Z,99140.94
2018-07-21T09:17:59.713Z,99139.63
2018-07-21T09:20:27.790Z,99142.36
2018-07-21T09:22:55.848Z,99137.38
2018-07-21T09:25:24.386Z,99143.42
2018-07-21T09:27:52.420Z,99135.55
2018-07-21T09:30:20.572Z,99138.71
2018-07-21T09:32:48.874Z,99137.47
2018-07-21T09:35:16.767Z,99131.76
2018-07-21T09:37:45.674Z,99124.14
2018-07-21T09:40:13.674Z,99129.66
2018-07-21T09:42:41.608Z,99128.65
2018-07-21T09:45:09.491Z,99124.78
2018-07-21T09:47:37.694Z,99127.05
2018-07-21T09:50:06.699Z,99123.05
2018-07-21T09:52:34.706Z,99120.80
2018-07-21T09:55:03.034Z,99123.31
2018-07-21T09:57:31.018Z,99118.37
2018-07-21T09:59:58.935Z,99124.29
2018-07-21T10:02:27.242Z,99121.05
2018-07-21T10:04:55.474Z,99126.14
2018-07-21T10:07:23.593Z,99124.98
2018-07-21T10:09:51.891Z,99120.89
2018-07-21T10:12:20.143Z,99116.92
2018-07-21T10:14:48.206Z,99117.06
2018-07-21T10:17:16.439Z,99117.67
2018-07-21T10:19:44.563Z,99114.52
2018-07-21T10:22:12.584Z,99114.09
2018-07-21T10:24:46.303Z,99107.86
2018-07-21T10:27:15.262Z,99114.98
2018-07-21T10:29:43.275Z,99113.16
2018-07-21T10:32:11.909Z,99104.36
2018-07-21T10:34:39.931Z,99106.19
2018-07-21T10:37:07.925Z,99099.36
2018-07-21T10:39:36.108Z,99101.56
2018-07-21T10:42:04.071Z,99099.48
2018-07-21T10:46:01.454Z,99106.19
2018-07-21T10:48:29.466Z,99095.45
2018-07-21T10:50:57.385Z,99096.45
2018-07-21T10:53:25.511Z,99092.48
2018-07-21T10:55:53.461Z,99081.34
2018-07-21T10:58:21.342Z,99088.70
2018-07-21T11:00:49.377Z,99089.03
2018-07-21T11:03:17.280Z,99080.64
2018-07-21T11:05:45.153Z,99078.81
2018-07-21T11:08:14.152Z,99076.55
2018-07-21T11:10:42.154Z,99073.99
2018-07-21T11:13:10.241Z,99075.11
2018-07-21T11:15:38.258Z,99072.15
2018-07-21T11:18:06.155Z,99062.47
2018-07-21T11:20:34.275Z,99070.82
2018-07-21T11:23:02.289Z,99064.79
2018-07-21T11:25:30.360Z,99074.66
2018-07-21T11:27:58.426Z,99065.97
2018-07-21T11:30:26.640Z,99067.31
2018-07-21T11:32:54.557Z,99066.98
2018-07-21T11:35:22.731Z,99071.71
2018-07-21T11:37:50.916Z,99068.00
2018-07-21T11:40:18.893Z,99073.85
2018-07-21T11:42:46.824Z,99072.45
2018-07-21T11:45:15.059Z,99076.62
2018-07-21T11:47:42.984Z,99067.73
2018-07-21T11:50:11.131Z,99077.36
2018-07-21T11:52:39.356Z,99072.05
2018-07-21T11:55:07.671Z,99071.13
2018-07-21T11:57:35.583Z,99066.55
2018-07-21T12:00:03.717Z,99061.61
2018-07-21T12:02:31.826Z,99058.58
2018-07-21T12:04:59.906Z,99054.06
2018-07-21T12:07:28.421Z,99063.95
2018-07-21T12:09:56.509Z,99063.03
2018-07-21T12:12:24.422Z,99053.16
2018-07-21T12:14:52.343Z,99060.92
2018-07-21T12:17:20.431Z,99056.09
2018-07-21T12:19:48.440Z,99052.71
2018-07-21T12:22:16.810Z,99042.05
2018-07-21T12:24:44.726Z,99047.58
2018-07-21T12:27:12.647Z,99049.59
2018-07-21T12:29:40.891Z,99047.09
2018-07-21T12:32:08.834Z,99042.51
2018-07-21T12:34:36.818Z,99036.82
2018-07-21T12:37:05.042Z,99036.69
2018-07-21T12:39:33.091Z,99038.19
2018-07-21T12:42:01.019Z,99038.59
2018-07-21T12:44:29.163Z,99032.34
2018-07-21T12:46:57.239Z,99033.64
2018-07-21T12:49:25.463Z,99025.44
2018-07-21T12:51:53.578Z,99024.78
2018-07-21T12:54:21.716Z,99029.42
2018-07-21T12:56:49.744Z,99031.59
2018-07-21T12:59:17.714Z,99028.14
2018-07-21T13:01:45.677Z,99026.66
2018-07-21T13:04:13.666Z,99028.35
2018-07-21T13:06:41.603Z,99028.47
2018-07-21T13:09:11.005Z,99032.16
2018-07-21T13:11:39.194Z,99026.70
2018-07-21T13:14:07.343Z,99029.09
2018-07-21T13:16:35.699Z,99031.64
2018-07-21T13:19:03.893Z,99030.02
2018-07-21T13:21:32.018Z,99023.77
2018-07-21T13:30:44.445Z,99007.59
2018-07-21T13:33:12.442Z,99014.28
2018-07-21T13:35:40.514Z,99009.93
2018-07-21T13:38:39.667Z,99010.77
2018-07-21T13:41:07.719Z,98998.29
2018-07-21T13:43:35.672Z,99010.27
2018-07-21T13:46:04.003Z,99004.63
2018-07-21T13:48:32.126Z,99001.17
2018-07-21T13:51:00.080Z,99008.86
2018-07-21T13:53:28.260Z,99013.08
2018-07-21T13:55:56.214Z,99013.48
2018-07-21T13:58:24.354Z,99013.13
2018-07-21T14:00:52.804Z,99006.23
2018-07-21T14:03:20.767Z,99007.16
2018-07-21T14:05:48.735Z,99007.02
2018-07-21T14:08:16.959Z,99001.83
2018-07-21T14:10:45.070Z,99003.48
2018-07-21T14:13:13.023Z,99005.92
2018-07-21T14:15:41.011Z,98999.72
2018-07-21T14:18:09.120Z,99008.60
2018-07-21T14:20:37.181Z,99008.91
2018-07-21T14:23:05.202Z,99002.66
2018-07-21T14:25:33.254Z,99002.30
2018-07-21T14:28:01.326Z,99002.23
2018-07-21T14:30:29.543Z,99006.31
2018-07-21T14:32:57.603Z,98996.16
2018-07-21T14:35:25.484Z,98996.03
2018-07-21T14:37:53.837Z,99004.07
2018-07-21T14:40:21.903Z,99008.13
2018-07-21T14:42:49.897Z,99004.95
2018-07-21T14:45:18.446Z,99007.61
2018-07-21T14:47:46.407Z,99001.83
2018-07-21T14:50:14.321Z,99003.73
2018-07-21T14:52:42.530Z,99006.80
2018-07-21T14:55:10.663Z,99008.77
2018-07-21T14:57:38.761Z,99001.88
2018-07-21T15:00:07.126Z,99001.34
2018-07-21T15:02:35.125Z,99003.67
2018-07-21T15:05:03.296Z,99001.23
2018-07-21T15:07:31.694Z,98998.12
2018-07-21T15:09:59.701Z,99005.39
2018-07-21T15:12:27.770Z,99014.14
2018-07-21T15:14:56.293Z,99014.45
2018-07-21T15:17:24.525Z,99009.21
2018-07-21T15:19:52.577Z,99007.80
2018-07-21T15:22:20.809Z,99010.58
2018-07-21T15:24:48.757Z,99004.75
2018-07-21T15:27:16.926Z,99007.41
2018-07-21T15:29:44.970Z,99009.07
2018-07-21T15:32:12.955Z,99005.64
2018-07-21T15:34:40.997Z,99008.19
2018-07-21T15:37:09.874Z,99006.48
2018-07-21T15:39:38.020Z,99003.69
2018-07-21T15:42:06.133Z,99007.02
2018-07-21T15:44:34.259Z,99002.96
2018-07-21T15:47:02.048Z,99002.23
2018-07-21T15:49:29.998Z,99005.75
2018-07-21T15:51:58.108Z,99009.32
2018-07-21T15:54:26.214Z,99011.66
2018-07-21T15:56:54.141Z,99007.80
2018-07-21T15:59:22.186Z,99008.30
2018-07-21T16:01:50.227Z,99003.31
2018-07-21T16:04:18.319Z,99006.11
2018-07-21T16:06:46.272Z,99002.91
2018-07-21T16:09:14.163Z,99009.81
2018-07-21T16:11:42.104Z,99008.68
2018-07-21T16:14:10.266Z,98999.70
2018-07-21T16:16:38.178Z,99001.41
2018-07-21T16:19:06.261Z,99013.67
2018-07-21T16:21:34.398Z,99009.08
2018-07-21T16:24:02.458Z,99014.20
2018-07-21T16:26:30.533Z,99008.44
2018-07-21T16:28:58.666Z,99001.76
2018-07-21T16:31:26.535Z,99011.63
2018-07-21T16:33:54.439Z,99009.00
2018-07-21T16:36:22.548Z,99009.39
2018-07-21T16:38:50.527Z,99009.58
2018-07-21T16:41:18.449Z,99018.56
2018-07-21T16:43:46.982Z,99025.78
2018-07-21T16:46:15.033Z,99023.30
2018-07-21T16:48:43.042Z,99027.92
2018-07-21T16:52:40.731Z,99021.81
2018-07-21T16:55:08.645Z,99025.73
2018-07-21T16:57:36.456Z,99025.98
2018-07-21T17:00:04.498Z,99023.54
2018-07-21T17:02:32.468Z,99024.78
2018-07-21T17:05:00.517Z,99028.11
2018-07-21T17:07:28.567Z,99022.79
2018-07-21T17:09:56.456Z,99026.29
2018-07-21T17:12:24.334Z,99028.97
2018-07-21T17:14:52.517Z,99026.31
2018-07-21T17:17:20.388Z,99026.31
2018-07-21T17:19:48.295Z,99026.72
2018-07-21T17:22:16.214Z,99029.39
2018-07-21T17:24:44.274Z,99033.56
2018-07-21T17:27:12.276Z,99035.64
2018-07-21T17:29:40.346Z,99034.88
2018-07-21T17:32:08.141Z,99046.11
2018-07-21T17:34:36.047Z,99051.93
2018-07-21T17:37:04.187Z,99044.80
2018-07-21T17:39:32.255Z,99051.84
2018-07-21T17:42:00.103Z,99048.20
2018-07-21T17:44:28.097Z,99043.03
2018-07-21T17:46:55.932Z,99050.86
2018-07-21T17:49:23.878Z,99051.14
2018-07-21T17:51:51.759Z,99049.97
2018-07-21T17:54:19.663Z,99048.99
2018-07-21T17:56:47.709Z,99061.03
2018-07-21T17:59:15.947Z,99056.63
2018-07-21T18:01:43.741Z,99057.69
2018-07-21T18:04:11.752Z,99052.09
2018-07-21T18:06:39.850Z,99059.11
2018-07-21T18:09:09.022Z,99061.48
2018-07-21T18:11:36.936Z,99065.61
2018-07-21T18:14:05.340Z,99067.95
2018-07-21T18:16:33.176Z,99070.59
2018-07-21T18:19:01.185Z,99073.01
2018-07-21T18:21:29.260Z,99071.22
2018-07-21T18:23:57.589Z,99079.41
2018-07-21T18:26:25.635Z,99082.45
2018-07-21T18:28:53.718Z,99088.32
2018-07-21T18:31:21.760Z,99091.12
2018-07-21T18:33:49.687Z,99091.05
2018-07-21T18:36:17.620Z,99099.68
2018-07-21T18:38:45.482Z,99100.81
2018-07-21T18:41:13.256Z,99101.43
2018-07-21T18:43:41.523Z,99106.88
2018-07-21T18:46:09.546Z,99111.97
2018-07-21T18:48:37.667Z,99113.44
2018-07-21T18:51:05.666Z,99116.13
2018-07-21T18:53:33.674Z,99121.84
2018-07-21T18:56:01.454Z,99133.05
2018-07-21T18:58:29.638Z,99129.31
2018-07-21T19:00:57.445Z,99129.31
2018-07-21T19:03:25.366Z,99135.11
2018-07-21T19:05:53.394Z,99138.24
2018-07-21T19:08:23.224Z,99139.29
2018-07-21T19:10:52.684Z,99137.77
2018-07-21T19:13:21.217Z,99137.83
2018-07-21T19:15:54.624Z,99137.19
2018-07-21T19:18:22.591Z,99140.53
2018-07-21T19:20:56.030Z,99136.89
2018-07-21T19:23:24.052Z,99142.31
2018-07-21T19:25:57.651Z,99139.23
2018-07-21T19:28:26.198Z,99143.31
2018-07-21T19:30:54.439Z,99136.73
2018-07-21T19:33:22.489Z,99147.68
2018-07-21T19:35:51.018Z,99147.89
2018-07-21T19:38:19.026Z,99149.24
2018-07-21T19:40:46.985Z,99154.67
2018-07-21T19:43:15.635Z,99146.41
2018-07-21T19:45:43.565Z,99147.11
2018-07-21T19:48:11.506Z,99142.50
2018-07-21T19:50:39.710Z,99147.92
2018-07-21T19:53:07.575Z,99150.84
2018-07-21T19:55:35.572Z,99137.83
2018-07-21T19:58:03.979Z,99141.35
2018-07-21T20:00:31.899Z,99144.00
2018-07-21T20:02:59.886Z,99148.53
2018-07-21T20:05:27.800Z,99146.52
2018-07-21T20:08:58.562Z,99155.11
2018-07-21T20:11:26.543Z,99151.82
2018-07-21T20:13:55.710Z,99157.96
2018-07-21T20:16:23.733Z,99153.30
2018-07-21T20:18:52.722Z,99150.77
2018-07-21T20:21:20.700Z,99150.52
2018-07-21T20:23:48.778Z,99145.86
2018-07-21T20:26:17.310Z,99151.44
2018-07-21T20:28:45.264Z,99151.48
2018-07-21T20:31:13.083Z,99149.24
2018-07-21T20:33:41.181Z,99151.67
2018-07-21T20:36:09.116Z,99149.36
2018-07-21T20:38:37.353Z,99145.81
2018-07-21T20:41:05.651Z,99143.03
2018-07-21T20:44:36.546Z,99139.87
2018-07-21T20:47:04.598Z,99136.23
2018-07-21T20:49:32.732Z,99140.70
2018-07-21T20:52:00.575Z,99137.33
2018-07-21T20:54:29.027Z,99148.41
2018-07-21T20:56:57.061Z,99142.20
2018-07-21T20:59:25.105Z,99143.84
2018-07-21T21:01:53.238Z,99147.90
2018-07-21T21:04:21.112Z,99143.91
2018-07-21T21:07:52.893Z,99141.94
2018-07-21T21:10:20.967Z,99142.26
2018-07-21T21:12:48.868Z,99137.52
2018-07-21T21:15:16.929Z,99138.33
2018-07-21T21:17:44.772Z,99133.27
2018-07-21T21:20:12.663Z,99125.46
2018-07-21T21:22:40.588Z,99127.89
2018-07-21T21:25:08.777Z,99124.46
2018-07-21T21:27:36.745Z,99124.52
2018-07-21T21:30:05.325Z,99124.67
2018-07-21T21:32:33.248Z,99125.38
2018-07-21T21:35:01.215Z,99121.67
2018-07-21T21:37:29.506Z,99121.87
2018-07-21T21:39:57.456Z,99126.52
2018-07-21T21:42:25.390Z,99124.92
2018-07-21T21:44:53.490Z,99124.52
2018-07-21T21:47:21.394Z,99122.91
2018-07-21T21:49:49.324Z,99124.47
2018-07-21T21:52:17.140Z,99124.52
2018-07-21T21:54:45.058Z,99124.89
2018-07-21T21:57:12.882Z,99128.12
2018-07-21T21:59:41.073Z,99126.48
2018-07-21T22:02:08.975Z,99127.23
2018-07-21T22:04:36.973Z,99126.06
2018-07-21T22:07:05.201Z,99125.05
2018-07-21T22:09:33.186Z,99127.47
2018-07-21T22:12:01.239Z,99129.98
2018-07-21T22:14:29.272Z,99126.50
2018-07-21T22:16:57.310Z,99128.41
2018-07-21T22:19:25.307Z,99120.87
2018-07-21T22:21:53.277Z,99125.11
2018-07-21T22:24:21.355Z,99131.02
2018-07-21T22:26:49.421Z,99129.02
2018-07-21T22:29:17.927Z,99131.48
2018-07-21T22:31:45.914Z,99121.66
2018-07-21T22:34:13.867Z,99126.69
2018-07-21T22:36:42.304Z,99127.20
2018-07-21T22:39:11.496Z,99126.03
2018-07-21T22:41:39.517Z,99128.12
2018-07-21T22:44:07.558Z,99129.47
2018-07-21T22:46:35.726Z,99128.81
2018-07-21T22:49:03.631Z,99123.42
2018-07-21T22:51:31.824Z,99119.23
2018-07-21T22:53:59.736Z,99118.75
2018-07-21T22:56:27.720Z,99116.05
2018-07-21T22:58:55.735Z,99120.11
2018-07-21T23:01:23.699Z,99126.85
2018-07-21T23:03:51.536Z,99118.13
2018-07-21T23:06:19.438Z,99122.03
2018-07-21T23:08:47.388Z,99118.16
2018-07-21T23:11:16.346Z,99123.25
2018-07-21T23:13:44.551Z,99120.53
2018-07-21T23:16:12.610Z,99124.03
2018-07-21T23:18:40.704Z,99119.36
2018-07-21T23:21:08.916Z,99121.91
2018-07-21T23:23:37.047Z,99128.98
2018-07-21T23:26:05.045Z,99128.30
2018-07-21T23:28:33.239Z,99124.75
2018-07-21T23:31:01.124Z,99123.59
2018-07-21T23:33:28.896Z,99119.87
2018-07-21T23:35:56.955Z,99119.90
2018-07-21T23:38:24.988Z,99118.60
2018-07-21T23:40:52.995Z,99113.06
2018-07-21T23:43:21.055Z,99115.75
2018-07-21T23:45:48.952Z,99120.98
2018-07-21T23:48:16.964Z,99122.54
2018-07-21T23:50:45.074Z,99122.69
2018-07-21T23:53:12.870Z,99124.73
2018-07-21T23:55:40.881Z,99121.34
2018-07-21T23:58:09.050Z,99120.50
